sensor_id;sensor_type;location;lat;lon;timestamp;pressure;altitude;pressure_sealevel;temperature
20867;BMP280;10593;48.398;10.698;2023-12-14T00:01:46;95040.38;;;13.50
20867;BMP280;10593;48.398;10.698;2023-12-14T00:04:12;95046.38;;;13.51
20867;BMP280;10593;48.398;10.698;2023-12-14T00:06:37;95043.78;;;13.51
20867;BMP280;10593;48.398;10.698;2023-12-14T00:09:03;95045.63;;;13.49
20867;BMP280;10593;48.398;10.698;2023-12-14T00:11:29;95050.78;;;13.49
20867;BMP280;10593;48.398;10.698;2023-12-14T00:13:55;95055.94;;;13.49
20867;BMP280;10593;48.398;10.698;2023-12-14T00:16:21;95043.94;;;13.48
20867;BMP280;10593;48.398;10.698;2023-12-14T00:18:47;95060.34;;;13.47
20867;BMP280;10593;48.398;10.698;2023-12-14T00:21:13;95071.41;;;13.49
20867;BMP280;10593;48.398;10.698;2023-12-14T00:23:38;95062.91;;;13.47
20867;BMP280;10593;48.398;10.698;2023-12-14T00:26:04;95071.56;;;13.46
20867;BMP280;10593;48.398;10.698;2023-12-14T00:28:30;95069.06;;;13.44
20867;BMP280;10593;48.398;10.698;2023-12-14T00:30:55;95076.78;;;13.44
20867;BMP280;10593;48.398;10.698;2023-12-14T00:33:21;95083.69;;;13.44
20867;BMP280;10593;48.398;10.698;2023-12-14T00:35:48;95082.88;;;13.43
20867;BMP280;10593;48.398;10.698;2023-12-14T00:38:13;95092.34;;;13.43
20867;BMP280;10593;48.398;10.698;2023-12-14T00:40:39;95090.66;;;13.42
20867;BMP280;10593;48.398;10.698;2023-12-14T00:43:05;95096.72;;;13.41
20867;BMP280;10593;48.398;10.698;2023-12-14T00:45:31;95101.91;;;13.41
20867;BMP280;10593;48.398;10.698;2023-12-14T00:47:56;95108.81;;;13.40
20867;BMP280;10593;48.398;10.698;2023-12-14T00:50:22;95110.53;;;13.40
20867;BMP280;10593;48.398;10.698;2023-12-14T00:52:48;95118.28;;;13.40
20867;BMP280;10593;48.398;10.698;2023-12-14T00:55:13;95120.97;;;13.38
20867;BMP280;10593;48.398;10.698;2023-12-14T00:57:39;95123.59;;;13.37
20867;BMP280;10593;48.398;10.698;2023-12-14T01:00:05;95123.59;;;13.37
20867;BMP280;10593;48.398;10.698;2023-12-14T01:02:31;95122.84;;;13.35
20867;BMP280;10593;48.398;10.698;2023-12-14T01:04:57;95123.66;;;13.35
20867;BMP280;10593;48.398;10.698;2023-12-14T01:07:22;95126.31;;;13.34
20867;BMP280;10593;48.398;10.698;2023-12-14T01:09:48;95130.63;;;13.33
20867;BMP280;10593;48.398;10.698;2023-12-14T01:12:14;95134.13;;;13.32
20867;BMP280;10593;48.398;10.698;2023-12-14T01:14:40;95141.03;;;13.32
20867;BMP280;10593;48.398;10.698;2023-12-14T01:17:06;95152.19;;;13.32
20867;BMP280;10593;48.398;10.698;2023-12-14T01:19:31;95151.34;;;13.32
20867;BMP280;10593;48.398;10.698;2023-12-14T01:21:57;95157.34;;;13.32
20867;BMP280;10593;48.398;10.698;2023-12-14T01:24:22;95162.59;;;13.31
20867;BMP280;10593;48.398;10.698;2023-12-14T01:26:48;95169.47;;;13.30
20867;BMP280;10593;48.398;10.698;2023-12-14T01:29:14;95173.78;;;13.30
20867;BMP280;10593;48.398;10.698;2023-12-14T01:31:39;95165.28;;;13.28
20867;BMP280;10593;48.398;10.698;2023-12-14T01:34:05;95173.03;;;13.28
20867;BMP280;10593;48.398;10.698;2023-12-14T01:36:31;95176.50;;;13.27
20867;BMP280;10593;48.398;10.698;2023-12-14T01:38:57;95184.25;;;13.27
20867;BMP280;10593;48.398;10.698;2023-12-14T01:41:23;95190.31;;;13.26
20867;BMP280;10593;48.398;10.698;2023-12-14T01:43:48;95198.03;;;13.26
20867;BMP280;10593;48.398;10.698;2023-12-14T01:46:14;95200.63;;;13.26
20867;BMP280;10593;48.398;10.698;2023-12-14T01:48:42;95196.38;;;13.25
20867;BMP280;10593;48.398;10.698;2023-12-14T01:51:08;95201.53;;;13.25
20867;BMP280;10593;48.398;10.698;2023-12-14T01:53:33;95205.03;;;13.24
20867;BMP280;10593;48.398;10.698;2023-12-14T01:55:59;95209.34;;;13.23
20867;BMP280;10593;48.398;10.698;2023-12-14T01:58:25;95210.25;;;13.22
20867;BMP280;10593;48.398;10.698;2023-12-14T02:01:23;95212.81;;;13.22
20867;BMP280;10593;48.398;10.698;2023-12-14T02:03:53;95215.47;;;13.21
20867;BMP280;10593;48.398;10.698;2023-12-14T02:06:20;95220.69;;;13.19
20867;BMP280;10593;48.398;10.698;2023-12-14T02:08:46;95225.03;;;13.19
20867;BMP280;10593;48.398;10.698;2023-12-14T02:11:12;95230.19;;;13.19
20867;BMP280;10593;48.398;10.698;2023-12-14T02:13:38;95227.63;;;13.19
20867;BMP280;10593;48.398;10.698;2023-12-14T02:16:04;95231.09;;;13.18
20867;BMP280;10593;48.398;10.698;2023-12-14T02:18:30;95236.25;;;13.18
20867;BMP280;10593;48.398;10.698;2023-12-14T02:20:55;95236.25;;;13.18
20867;BMP280;10593;48.398;10.698;2023-12-14T02:23:21;95237.13;;;13.17
20867;BMP280;10593;48.398;10.698;2023-12-14T02:25:47;95242.28;;;13.17
20867;BMP280;10593;48.398;10.698;2023-12-14T02:28:12;95245.78;;;13.16
20867;BMP280;10593;48.398;10.698;2023-12-14T02:30:38;95249.22;;;13.16
20867;BMP280;10593;48.398;10.698;2023-12-14T02:33:04;95252.69;;;13.15
20867;BMP280;10593;48.398;10.698;2023-12-14T02:35:29;95262.16;;;13.15
20867;BMP280;10593;48.398;10.698;2023-12-14T02:37:55;95262.16;;;13.15
20867;BMP280;10593;48.398;10.698;2023-12-14T02:40:21;95271.66;;;13.14
20867;BMP280;10593;48.398;10.698;2023-12-14T02:42:47;95275.13;;;13.13
20867;BMP280;10593;48.398;10.698;2023-12-14T02:45:13;95269.13;;;13.13
20867;BMP280;10593;48.398;10.698;2023-12-14T02:47:39;95277.78;;;13.12
20867;BMP280;10593;48.398;10.698;2023-12-14T02:50:05;95276.09;;;13.11
20867;BMP280;10593;48.398;10.698;2023-12-14T02:52:31;95282.16;;;13.10
20867;BMP280;10593;48.398;10.698;2023-12-14T02:54:57;95289.91;;;13.10
20867;BMP280;10593;48.398;10.698;2023-12-14T02:57:23;95282.16;;;13.10
20867;BMP280;10593;48.398;10.698;2023-12-14T02:59:48;95290.81;;;13.09
20867;BMP280;10593;48.398;10.698;2023-12-14T03:02:14;95289.13;;;13.08
20867;BMP280;10593;48.398;10.698;2023-12-14T03:04:40;95298.53;;;13.09
20867;BMP280;10593;48.398;10.698;2023-12-14T03:07:06;95294.28;;;13.08
20867;BMP280;10593;48.398;10.698;2023-12-14T03:09:33;95302.06;;;13.06
20867;BMP280;10593;48.398;10.698;2023-12-14T03:12:00;95298.69;;;13.06
20867;BMP280;10593;48.398;10.698;2023-12-14T03:14:31;95303.84;;;13.06
20867;BMP280;10593;48.398;10.698;2023-12-14T03:16:57;95306.47;;;13.04
20867;BMP280;10593;48.398;10.698;2023-12-14T03:19:24;95308.22;;;13.04
20867;BMP280;10593;48.398;10.698;2023-12-14T03:21:50;95309.09;;;13.03
20867;BMP280;10593;48.398;10.698;2023-12-14T03:24:16;95313.44;;;13.02
20867;BMP280;10593;48.398;10.698;2023-12-14T03:26:42;95317.75;;;13.02
20867;BMP280;10593;48.398;10.698;2023-12-14T03:29:08;95311.75;;;13.01
20867;BMP280;10593;48.398;10.698;2023-12-14T03:31:34;95324.69;;;13.00
20867;BMP280;10593;48.398;10.698;2023-12-14T03:34:01;95321.31;;;12.99
20867;BMP280;10593;48.398;10.698;2023-12-14T03:36:26;95329.84;;;13.00
20867;BMP280;10593;48.398;10.698;2023-12-14T03:38:53;95333.34;;;12.99
20867;BMP280;10593;48.398;10.698;2023-12-14T03:41:19;95341.06;;;12.99
20867;BMP280;10593;48.398;10.698;2023-12-14T03:43:44;95346.22;;;12.99
20867;BMP280;10593;48.398;10.698;2023-12-14T03:46:11;95340.31;;;12.97
20867;BMP280;10593;48.398;10.698;2023-12-14T03:48:36;95340.31;;;12.97
20867;BMP280;10593;48.398;10.698;2023-12-14T03:51:06;95340.31;;;12.97
20867;BMP280;10593;48.398;10.698;2023-12-14T03:53:31;95345.47;;;12.97
20867;BMP280;10593;48.398;10.698;2023-12-14T03:56:00;95345.50;;;12.95
20867;BMP280;10593;48.398;10.698;2023-12-14T03:58:26;95354.16;;;12.94
20867;BMP280;10593;48.398;10.698;2023-12-14T04:00:52;95355.84;;;12.95
20867;BMP280;10593;48.398;10.698;2023-12-14T04:03:18;95356.72;;;12.94
20867;BMP280;10593;48.398;10.698;2023-12-14T04:05:44;95362.78;;;12.93
20867;BMP280;10593;48.398;10.698;2023-12-14T04:08:10;95370.56;;;12.92
20867;BMP280;10593;48.398;10.698;2023-12-14T04:10:36;95380.03;;;12.93
20867;BMP280;10593;48.398;10.698;2023-12-14T04:13:02;95383.47;;;12.92
20867;BMP280;10593;48.398;10.698;2023-12-14T04:15:27;95387.78;;;12.91
20867;BMP280;10593;48.398;10.698;2023-12-14T04:17:53;95397.19;;;12.92
20867;BMP280;10593;48.398;10.698;2023-12-14T04:20:19;95401.56;;;12.90
20867;BMP280;10593;48.398;10.698;2023-12-14T04:22:44;95402.41;;;12.91
20867;BMP280;10593;48.398;10.698;2023-12-14T04:25:11;95400.72;;;12.90
20867;BMP280;10593;48.398;10.698;2023-12-14T04:27:36;95404.19;;;12.89
20867;BMP280;10593;48.398;10.698;2023-12-14T04:30:03;95409.34;;;12.89
20867;BMP280;10593;48.398;10.698;2023-12-14T04:32:30;95412.81;;;12.88
20867;BMP280;10593;48.398;10.698;2023-12-14T04:34:56;95410.25;;;12.88
20867;BMP280;10593;48.398;10.698;2023-12-14T04:37:21;95415.34;;;12.89
20867;BMP280;10593;48.398;10.698;2023-12-14T04:39:47;95419.75;;;12.87
20867;BMP280;10593;48.398;10.698;2023-12-14T04:42:13;95425.78;;;12.86
20867;BMP280;10593;48.398;10.698;2023-12-14T04:44:38;95421.47;;;12.87
20867;BMP280;10593;48.398;10.698;2023-12-14T04:47:04;95437.84;;;12.86
20867;BMP280;10593;48.398;10.698;2023-12-14T04:49:30;95438.72;;;12.85
20867;BMP280;10593;48.398;10.698;2023-12-14T04:51:55;95449.03;;;12.85
20867;BMP280;10593;48.398;10.698;2023-12-14T04:54:21;95452.47;;;12.85
20867;BMP280;10593;48.398;10.698;2023-12-14T04:56:47;95450.81;;;12.84
20867;BMP280;10593;48.398;10.698;2023-12-14T04:59:13;95453.38;;;12.84
20867;BMP280;10593;48.398;10.698;2023-12-14T05:01:38;95461.16;;;12.83
20867;BMP280;10593;48.398;10.698;2023-12-14T05:04:04;95462.84;;;12.84
20867;BMP280;10593;48.398;10.698;2023-12-14T05:06:30;95467.22;;;12.82
20867;BMP280;10593;48.398;10.698;2023-12-14T05:08:58;95468.13;;;12.81
20867;BMP280;10593;48.398;10.698;2023-12-14T05:11:24;95472.41;;;12.80
20867;BMP280;10593;48.398;10.698;2023-12-14T05:13:50;95470.75;;;12.79
20867;BMP280;10593;48.398;10.698;2023-12-14T05:16:16;95475.97;;;12.78
20867;BMP280;10593;48.398;10.698;2023-12-14T05:18:41;95481.13;;;12.78
20867;BMP280;10593;48.398;10.698;2023-12-14T05:21:07;95487.97;;;12.79
20867;BMP280;10593;48.398;10.698;2023-12-14T05:23:33;95484.59;;;12.77
20867;BMP280;10593;48.398;10.698;2023-12-14T05:25:59;95488.91;;;12.76
20867;BMP280;10593;48.398;10.698;2023-12-14T05:28:25;95492.38;;;12.75
20867;BMP280;10593;48.398;10.698;2023-12-14T05:30:51;95500.13;;;12.75
20867;BMP280;10593;48.398;10.698;2023-12-14T05:33:16;95501.84;;;12.75
20867;BMP280;10593;48.398;10.698;2023-12-14T05:35:42;95513.06;;;12.74
20867;BMP280;10593;48.398;10.698;2023-12-14T05:38:08;95511.38;;;12.73
20867;BMP280;10593;48.398;10.698;2023-12-14T05:40:33;95513.06;;;12.74
20867;BMP280;10593;48.398;10.698;2023-12-14T05:42:59;95521.69;;;12.73
20867;BMP280;10593;48.398;10.698;2023-12-14T05:45:25;95530.31;;;12.72
20867;BMP280;10593;48.398;10.698;2023-12-14T05:47:51;95537.22;;;12.71
20867;BMP280;10593;48.398;10.698;2023-12-14T05:50:16;95542.38;;;12.71
20867;BMP280;10593;48.398;10.698;2023-12-14T05:52:42;95535.56;;;12.70
20867;BMP280;10593;48.398;10.698;2023-12-14T05:55:09;95539.81;;;12.71
20867;BMP280;10593;48.398;10.698;2023-12-14T05:57:36;95538.94;;;12.71
20867;BMP280;10593;48.398;10.698;2023-12-14T06:00:03;95542.44;;;12.70
20867;BMP280;10593;48.398;10.698;2023-12-14T06:02:31;95547.59;;;12.70
20867;BMP280;10593;48.398;10.698;2023-12-14T06:04:58;95556.22;;;12.69
20867;BMP280;10593;48.398;10.698;2023-12-14T06:07:24;95556.22;;;12.69
20867;BMP280;10593;48.398;10.698;2023-12-14T06:09:50;95569.09;;;12.69
20867;BMP280;10593;48.398;10.698;2023-12-14T06:12:16;95571.69;;;12.69
20867;BMP280;10593;48.398;10.698;2023-12-14T06:14:42;95581.22;;;12.67
20867;BMP280;10593;48.398;10.698;2023-12-14T06:17:07;95585.47;;;12.68
20867;BMP280;10593;48.398;10.698;2023-12-14T06:19:33;95583.78;;;12.67
20867;BMP280;10593;48.398;10.698;2023-12-14T06:21:59;95588.94;;;12.67
20867;BMP280;10593;48.398;10.698;2023-12-14T06:24:24;95592.41;;;12.66
20867;BMP280;10593;48.398;10.698;2023-12-14T06:26:50;95601.81;;;12.67
20867;BMP280;10593;48.398;10.698;2023-12-14T06:29:16;95606.97;;;12.67
20867;BMP280;10593;48.398;10.698;2023-12-14T06:31:41;95607.88;;;12.66
20867;BMP280;10593;48.398;10.698;2023-12-14T06:34:07;95612.19;;;12.65
20867;BMP280;10593;48.398;10.698;2023-12-14T06:36:34;95612.19;;;12.65
20867;BMP280;10593;48.398;10.698;2023-12-14T06:39:02;95617.34;;;12.65
20867;BMP280;10593;48.398;10.698;2023-12-14T06:41:28;95619.09;;;12.65
20867;BMP280;10593;48.398;10.698;2023-12-14T06:43:55;95623.34;;;12.66
20867;BMP280;10593;48.398;10.698;2023-12-14T06:46:21;95632.78;;;12.65
20867;BMP280;10593;48.398;10.698;2023-12-14T06:48:48;95642.28;;;12.65
20867;BMP280;10593;48.398;10.698;2023-12-14T06:51:14;95647.44;;;12.65
20867;BMP280;10593;48.398;10.698;2023-12-14T06:53:41;95645.69;;;12.65
20867;BMP280;10593;48.398;10.698;2023-12-14T06:56:08;95654.28;;;12.66
20867;BMP280;10593;48.398;10.698;2023-12-14T06:58:40;95654.28;;;12.66
20867;BMP280;10593;48.398;10.698;2023-12-14T07:01:11;95657.75;;;12.65
20867;BMP280;10593;48.398;10.698;2023-12-14T07:03:40;95659.47;;;12.64
20867;BMP280;10593;48.398;10.698;2023-12-14T07:06:07;95665.47;;;12.65
20867;BMP280;10593;48.398;10.698;2023-12-14T07:08:36;95668.06;;;12.65
20867;BMP280;10593;48.398;10.698;2023-12-14T07:11:02;95673.22;;;12.65
20867;BMP280;10593;48.398;10.698;2023-12-14T07:13:28;95677.50;;;12.64
20867;BMP280;10593;48.398;10.698;2023-12-14T07:15:53;95673.22;;;12.65
20867;BMP280;10593;48.398;10.698;2023-12-14T07:18:19;95681.75;;;12.65
20867;BMP280;10593;48.398;10.698;2023-12-14T07:20:45;95682.66;;;12.64
20867;BMP280;10593;48.398;10.698;2023-12-14T07:23:10;95688.69;;;12.65
20867;BMP280;10593;48.398;10.698;2023-12-14T07:25:36;95695.56;;;12.64
20867;BMP280;10593;48.398;10.698;2023-12-14T07:28:02;95697.22;;;12.65
20867;BMP280;10593;48.398;10.698;2023-12-14T07:30:27;95705.03;;;12.64
20867;BMP280;10593;48.398;10.698;2023-12-14T07:32:53;95692.97;;;12.64
20867;BMP280;10593;48.398;10.698;2023-12-14T07:35:19;95707.53;;;12.65
20867;BMP280;10593;48.398;10.698;2023-12-14T07:37:45;95709.28;;;12.65
20867;BMP280;10593;48.398;10.698;2023-12-14T07:40:11;95711.88;;;12.65
20867;BMP280;10593;48.398;10.698;2023-12-14T07:42:37;95712.66;;;12.67
20867;BMP280;10593;48.398;10.698;2023-12-14T07:45:03;95729.84;;;12.66
20867;BMP280;10593;48.398;10.698;2023-12-14T07:47:29;95727.25;;;12.66
20867;BMP280;10593;48.398;10.698;2023-12-14T07:49:55;95739.25;;;12.67
20867;BMP280;10593;48.398;10.698;2023-12-14T07:52:21;95741.81;;;12.67
20867;BMP280;10593;48.398;10.698;2023-12-14T07:54:46;95742.69;;;12.68
20867;BMP280;10593;48.398;10.698;2023-12-14T07:57:12;95741.78;;;12.69
20867;BMP280;10593;48.398;10.698;2023-12-14T07:59:37;95750.34;;;12.69
20867;BMP280;10593;48.398;10.698;2023-12-14T08:02:03;95743.47;;;12.70
20867;BMP280;10593;48.398;10.698;2023-12-14T08:04:29;95747.72;;;12.71
20867;BMP280;10593;48.398;10.698;2023-12-14T08:06:54;95752.88;;;12.71
20867;BMP280;10593;48.398;10.698;2023-12-14T08:09:21;95758.91;;;12.71
20867;BMP280;10593;48.398;10.698;2023-12-14T08:11:47;95760.56;;;12.72
20867;BMP280;10593;48.398;10.698;2023-12-14T08:14:13;95770.00;;;12.73
20867;BMP280;10593;48.398;10.698;2023-12-14T08:16:38;95771.72;;;12.73
20867;BMP280;10593;48.398;10.698;2023-12-14T08:19:04;95785.38;;;12.75
20867;BMP280;10593;48.398;10.698;2023-12-14T08:21:30;95787.97;;;12.75
20867;BMP280;10593;48.398;10.698;2023-12-14T08:23:56;95793.97;;;12.75
20867;BMP280;10593;48.398;10.698;2023-12-14T08:26:22;95796.53;;;12.77
20867;BMP280;10593;48.398;10.698;2023-12-14T08:28:48;95804.25;;;12.77
20867;BMP280;10593;48.398;10.698;2023-12-14T08:31:13;95803.34;;;12.78
20867;BMP280;10593;48.398;10.698;2023-12-14T08:33:41;95803.28;;;12.79
20867;BMP280;10593;48.398;10.698;2023-12-14T08:36:08;95817.03;;;12.80
20867;BMP280;10593;48.398;10.698;2023-12-14T08:38:34;95818.72;;;12.81
20867;BMP280;10593;48.398;10.698;2023-12-14T08:40:59;95823.00;;;12.80
20867;BMP280;10593;48.398;10.698;2023-12-14T08:43:26;95830.72;;;12.82
20867;BMP280;10593;48.398;10.698;2023-12-14T08:45:52;95830.72;;;12.82
20867;BMP280;10593;48.398;10.698;2023-12-14T08:48:18;95833.28;;;12.82
20867;BMP280;10593;48.398;10.698;2023-12-14T08:50:44;95843.53;;;12.83
20867;BMP280;10593;48.398;10.698;2023-12-14T08:53:10;95847.81;;;12.84
20867;BMP280;10593;48.398;10.698;2023-12-14T08:55:36;95847.81;;;12.84
20867;BMP280;10593;48.398;10.698;2023-12-14T08:58:02;95855.50;;;12.86
20867;BMP280;10593;48.398;10.698;2023-12-14T09:00:28;95856.34;;;12.86
20867;BMP280;10593;48.398;10.698;2023-12-14T09:02:53;95852.00;;;12.87
20867;BMP280;10593;48.398;10.698;2023-12-14T09:05:20;95841.66;;;12.88
20867;BMP280;10593;48.398;10.698;2023-12-14T09:07:47;95855.38;;;12.89
20867;BMP280;10593;48.398;10.698;2023-12-14T09:10:12;95863.97;;;12.89
20867;BMP280;10593;48.398;10.698;2023-12-14T09:12:38;95866.50;;;12.91
20867;BMP280;10593;48.398;10.698;2023-12-14T09:15:04;95871.66;;;12.91
20867;BMP280;10593;48.398;10.698;2023-12-14T09:17:30;95879.34;;;12.92
20867;BMP280;10593;48.398;10.698;2023-12-14T09:20:02;95881.91;;;12.94
20867;BMP280;10593;48.398;10.698;2023-12-14T09:22:31;95887.91;;;12.94
20867;BMP280;10593;48.398;10.698;2023-12-14T09:24:56;95895.59;;;12.96
20867;BMP280;10593;48.398;10.698;2023-12-14T09:27:23;95894.69;;;12.97
20867;BMP280;10593;48.398;10.698;2023-12-14T09:29:48;95903.22;;;12.99
20867;BMP280;10593;48.398;10.698;2023-12-14T09:32:14;95899.75;;;13.00
20867;BMP280;10593;48.398;10.698;2023-12-14T09:34:40;95900.59;;;13.00
20867;BMP280;10593;48.398;10.698;2023-12-14T09:37:05;95905.69;;;13.02
20867;BMP280;10593;48.398;10.698;2023-12-14T09:39:34;95903.03;;;13.05
20867;BMP280;10593;48.398;10.698;2023-12-14T09:42:06;95906.44;;;13.05
20867;BMP280;10593;48.398;10.698;2023-12-14T09:44:34;95917.50;;;13.09
20867;BMP280;10593;48.398;10.698;2023-12-14T09:47:01;95919.19;;;13.10
20867;BMP280;10593;48.398;10.698;2023-12-14T09:49:30;95917.44;;;13.10
20867;BMP280;10593;48.398;10.698;2023-12-14T09:51:59;95926.78;;;13.14
20867;BMP280;10593;48.398;10.698;2023-12-14T09:54:27;95932.78;;;13.15
20867;BMP280;10593;48.398;10.698;2023-12-14T09:56:53;95929.31;;;13.16
20867;BMP280;10593;48.398;10.698;2023-12-14T09:59:20;95936.06;;;13.20
20867;BMP280;10593;48.398;10.698;2023-12-14T10:01:46;95933.50;;;13.20
20867;BMP280;10593;48.398;10.698;2023-12-14T10:04:18;95940.25;;;13.22
20867;BMP280;10593;48.398;10.698;2023-12-14T10:06:46;95939.38;;;13.23
20867;BMP280;10593;48.398;10.698;2023-12-14T10:09:13;95947.06;;;13.25
20867;BMP280;10593;48.398;10.698;2023-12-14T10:11:42;95947.84;;;13.27
20867;BMP280;10593;48.398;10.698;2023-12-14T10:14:21;95946.97;;;13.28
20867;BMP280;10593;48.398;10.698;2023-12-14T10:16:48;95950.44;;;13.27
20867;BMP280;10593;48.398;10.698;2023-12-14T10:19:17;95957.25;;;13.29
20867;BMP280;10593;48.398;10.698;2023-12-14T10:21:48;95949.47;;;13.31
20867;BMP280;10593;48.398;10.698;2023-12-14T10:24:15;95956.31;;;13.32
20867;BMP280;10593;48.398;10.698;2023-12-14T10:26:41;95951.06;;;13.33
20867;BMP280;10593;48.398;10.698;2023-12-14T10:29:07;95950.19;;;13.34
20867;BMP280;10593;48.398;10.698;2023-12-14T10:31:33;95951.03;;;13.35
20867;BMP280;10593;48.398;10.698;2023-12-14T10:34:04;95951.81;;;13.37
20867;BMP280;10593;48.398;10.698;2023-12-14T10:36:31;95956.94;;;13.38
20867;BMP280;10593;48.398;10.698;2023-12-14T10:38:58;95952.63;;;13.39
20867;BMP280;10593;48.398;10.698;2023-12-14T10:41:25;95957.75;;;13.40
20867;BMP280;10593;48.398;10.698;2023-12-14T10:43:55;95963.72;;;13.41
20867;BMP280;10593;48.398;10.698;2023-12-14T10:46:21;95959.34;;;13.43
20867;BMP280;10593;48.398;10.698;2023-12-14T10:48:50;95963.59;;;13.45
20867;BMP280;10593;48.398;10.698;2023-12-14T10:51:20;95964.44;;;13.46
20867;BMP280;10593;48.398;10.698;2023-12-14T10:53:47;95973.88;;;13.47
20867;BMP280;10593;48.398;10.698;2023-12-14T10:56:16;95972.97;;;13.48
20867;BMP280;10593;48.398;10.698;2023-12-14T10:58:54;95967.81;;;13.48
20867;BMP280;10593;48.398;10.698;2023-12-14T11:01:22;95969.50;;;13.49
20867;BMP280;10593;48.398;10.698;2023-12-14T11:03:56;95975.47;;;13.49
20867;BMP280;10593;48.398;10.698;2023-12-14T11:06:36;95986.63;;;13.51
20867;BMP280;10593;48.398;10.698;2023-12-14T11:09:09;95978.88;;;13.51
20867;BMP280;10593;48.398;10.698;2023-12-14T11:12:02;95984.03;;;13.51
20867;BMP280;10593;48.398;10.698;2023-12-14T11:14:29;95996.06;;;13.52
20867;BMP280;10593;48.398;10.698;2023-12-14T11:17:06;95992.56;;;13.53
20867;BMP280;10593;48.398;10.698;2023-12-14T11:19:32;95999.41;;;13.54
20867;BMP280;10593;48.398;10.698;2023-12-14T11:22:23;96007.09;;;13.56
20867;BMP280;10593;48.398;10.698;2023-12-14T11:24:54;96002.81;;;13.55
20867;BMP280;10593;48.398;10.698;2023-12-14T11:27:30;96013.94;;;13.57
20867;BMP280;10593;48.398;10.698;2023-12-14T11:29:57;96009.63;;;13.57
20867;BMP280;10593;48.398;10.698;2023-12-14T11:32:25;96017.34;;;13.59
20867;BMP280;10593;48.398;10.698;2023-12-14T11:34:50;96012.09;;;13.60
20867;BMP280;10593;48.398;10.698;2023-12-14T11:37:16;96022.41;;;13.62
20867;BMP280;10593;48.398;10.698;2023-12-14T11:39:42;96016.38;;;13.61
20867;BMP280;10593;48.398;10.698;2023-12-14T11:42:09;96017.16;;;13.63
20867;BMP280;10593;48.398;10.698;2023-12-14T11:44:37;96022.28;;;13.65
20867;BMP280;10593;48.398;10.698;2023-12-14T11:47:03;96017.97;;;13.65
20867;BMP280;10593;48.398;10.698;2023-12-14T11:49:29;96023.88;;;13.69
20867;BMP280;10593;48.398;10.698;2023-12-14T11:51:56;96026.44;;;13.69
20867;BMP280;10593;48.398;10.698;2023-12-14T11:54:22;96030.72;;;13.70
20867;BMP280;10593;48.398;10.698;2023-12-14T11:56:49;96031.53;;;13.72
20867;BMP280;10593;48.398;10.698;2023-12-14T11:59:17;96034.94;;;13.72
20867;BMP280;10593;48.398;10.698;2023-12-14T12:01:56;96032.38;;;13.72
20867;BMP280;10593;48.398;10.698;2023-12-14T12:04:23;96027.97;;;13.74
20867;BMP280;10593;48.398;10.698;2023-12-14T12:06:49;96029.75;;;13.74
20867;BMP280;10593;48.398;10.698;2023-12-14T12:09:41;96034.84;;;13.75
20867;BMP280;10593;48.398;10.698;2023-12-14T12:12:11;96036.47;;;13.78
20867;BMP280;10593;48.398;10.698;2023-12-14T12:14:39;96041.59;;;13.79
20867;BMP280;10593;48.398;10.698;2023-12-14T12:17:06;96036.44;;;13.79
20867;BMP280;10593;48.398;10.698;2023-12-14T12:19:36;96034.66;;;13.81
20867;BMP280;10593;48.398;10.698;2023-12-14T12:22:04;96035.47;;;13.82
20867;BMP280;10593;48.398;10.698;2023-12-14T12:24:30;96036.25;;;13.84
20867;BMP280;10593;48.398;10.698;2023-12-14T12:26:56;96043.16;;;13.85
20867;BMP280;10593;48.398;10.698;2023-12-14T12:29:22;96032.81;;;13.85
20867;BMP280;10593;48.398;10.698;2023-12-14T12:31:48;96035.31;;;13.86
20867;BMP280;10593;48.398;10.698;2023-12-14T12:34:14;96035.28;;;13.88
20867;BMP280;10593;48.398;10.698;2023-12-14T12:36:40;96037.88;;;13.88
20867;BMP280;10593;48.398;10.698;2023-12-14T12:39:06;96050.66;;;13.91
20867;BMP280;10593;48.398;10.698;2023-12-14T12:41:32;96044.66;;;13.90
20867;BMP280;10593;48.398;10.698;2023-12-14T12:43:59;96054.94;;;13.92
20867;BMP280;10593;48.398;10.698;2023-12-14T12:46:32;96053.22;;;13.92
20867;BMP280;10593;48.398;10.698;2023-12-14T12:48:58;96048.09;;;13.91
20867;BMP280;10593;48.398;10.698;2023-12-14T12:51:24;96055.78;;;13.92
20867;BMP280;10593;48.398;10.698;2023-12-14T12:53:53;96059.19;;;13.93
20867;BMP280;10593;48.398;10.698;2023-12-14T12:56:18;96059.19;;;13.93
20867;BMP280;10593;48.398;10.698;2023-12-14T12:58:44;96068.63;;;13.94
20867;BMP280;10593;48.398;10.698;2023-12-14T13:01:10;96066.91;;;13.94
20867;BMP280;10593;48.398;10.698;2023-12-14T13:03:35;96064.25;;;13.96
20867;BMP280;10593;48.398;10.698;2023-12-14T13:06:01;96070.28;;;13.96
20867;BMP280;10593;48.398;10.698;2023-12-14T13:08:28;96072.00;;;13.96
20867;BMP280;10593;48.398;10.698;2023-12-14T13:10:54;96077.97;;;13.98
20867;BMP280;10593;48.398;10.698;2023-12-14T13:13:19;96083.94;;;14.00
20867;BMP280;10593;48.398;10.698;2023-12-14T13:15:45;96087.34;;;14.00
20867;BMP280;10593;48.398;10.698;2023-12-14T13:18:11;96091.59;;;14.03
20867;BMP280;10593;48.398;10.698;2023-12-14T13:20:36;96093.28;;;14.04
20867;BMP280;10593;48.398;10.698;2023-12-14T13:23:02;96091.47;;;14.06
20867;BMP280;10593;48.398;10.698;2023-12-14T13:25:28;96099.19;;;14.07
20867;BMP280;10593;48.398;10.698;2023-12-14T13:27:54;96097.41;;;14.09
20867;BMP280;10593;48.398;10.698;2023-12-14T13:30:19;96105.06;;;14.11
20867;BMP280;10593;48.398;10.698;2023-12-14T13:32:48;96111.00;;;14.14
20867;BMP280;10593;48.398;10.698;2023-12-14T13:35:14;96120.50;;;14.14
20867;BMP280;10593;48.398;10.698;2023-12-14T13:37:39;96114.41;;;14.16
20867;BMP280;10593;48.398;10.698;2023-12-14T13:40:06;96125.59;;;14.17
20867;BMP280;10593;48.398;10.698;2023-12-14T13:42:32;96124.69;;;14.18
20867;BMP280;10593;48.398;10.698;2023-12-14T13:44:58;96123.78;;;14.19
20867;BMP280;10593;48.398;10.698;2023-12-14T13:47:23;96130.66;;;14.20
20867;BMP280;10593;48.398;10.698;2023-12-14T13:49:49;96133.19;;;14.21
20867;BMP280;10593;48.398;10.698;2023-12-14T13:52:14;96138.38;;;14.21
20867;BMP280;10593;48.398;10.698;2023-12-14T13:54:40;96145.22;;;14.22